createdAt,value
2019-03-01T00:04:03.899Z,21.49
2019-03-01T00:09:40.281Z,21.45
2019-03-01T00:15:04.876Z,21.45
2019-03-01T00:20:43.978Z,21.42
2019-03-01T00:26:13.225Z,21.47
2019-03-01T00:32:16.627Z,21.43
2019-03-01T00:38:17.365Z,21.43
2019-03-01T00:44:13.555Z,21.39
2019-03-01T00:49:17.429Z,21.37
2019-03-01T00:54:21.231Z,21.37
2019-03-01T00:59:25.097Z,21.41
2019-03-01T01:04:28.911Z,21.41
2019-03-01T01:09:33.949Z,21.35
2019-03-01T01:14:37.740Z,21.28
2019-03-01T01:19:41.525Z,21.36
2019-03-01T01:24:45.312Z,21.35
2019-03-01T01:29:49.078Z,21.30
2019-03-01T01:34:52.850Z,21.30
2019-03-01T01:39:56.681Z,21.27
2019-03-01T01:45:00.447Z,21.25
2019-03-01T01:50:05.037Z,21.23
2019-03-01T01:55:08.817Z,21.19
2019-03-01T02:00:12.775Z,21.15
2019-03-01T02:05:16.689Z,21.11
2019-03-01T02:10:20.575Z,21.09
2019-03-01T02:15:24.373Z,21.09
2019-03-01T02:20:28.228Z,21.07
2019-03-01T02:25:32.226Z,21.03
2019-03-01T02:30:36.102Z,21.05
2019-03-01T02:35:39.871Z,21.00
2019-03-01T02:40:43.640Z,21.00
2019-03-01T02:45:47.492Z,20.98
2019-03-01T02:50:51.267Z,21.01
2019-03-01T02:55:55.046Z,20.98
2019-03-01T03:00:58.804Z,20.96
2019-03-01T03:06:20.505Z,20.96
2019-03-01T03:11:24.272Z,20.97
2019-03-01T03:16:28.723Z,20.94
2019-03-01T03:21:32.482Z,20.93
2019-03-01T03:26:36.359Z,20.93
2019-03-01T03:31:40.135Z,20.93
2019-03-01T03:36:43.896Z,20.93
2019-03-01T03:41:47.681Z,20.87
2019-03-01T03:46:51.581Z,20.88
2019-03-01T03:51:55.350Z,20.88
2019-03-01T03:56:59.159Z,20.87
2019-03-01T04:02:03.061Z,20.86
2019-03-01T04:07:06.892Z,20.87
2019-03-01T04:12:10.655Z,20.82
2019-03-01T04:17:14.559Z,20.83
2019-03-01T04:22:18.363Z,20.81
2019-03-01T04:27:22.122Z,20.81
2019-03-01T04:32:25.954Z,20.80
2019-03-01T04:37:30.273Z,20.78
2019-03-01T04:42:34.066Z,20.70
2019-03-01T04:47:37.805Z,20.70
2019-03-01T04:52:41.668Z,20.74
2019-03-01T04:57:45.423Z,20.68
2019-03-01T05:02:49.165Z,20.66
2019-03-01T05:07:52.905Z,20.64
2019-03-01T05:12:57.797Z,20.63
2019-03-01T05:18:01.550Z,20.63
2019-03-01T05:23:05.303Z,20.61
2019-03-01T05:28:09.048Z,20.61
2019-03-01T05:33:12.811Z,20.60
2019-03-01T05:38:21.819Z,20.58
2019-03-01T05:43:22.048Z,20.56
2019-03-01T05:48:25.787Z,20.56
2019-03-01T05:53:29.553Z,20.56
2019-03-01T05:58:38.493Z,20.53
2019-03-01T06:04:15.564Z,20.52
2019-03-01T06:09:42.147Z,20.49
2019-03-01T06:15:14.395Z,20.49
2019-03-01T06:20:41.174Z,20.50
2019-03-01T06:26:10.574Z,20.49
2019-03-01T06:31:59.907Z,20.45
2019-03-01T06:37:20.609Z,20.44
2019-03-01T06:43:11.432Z,20.43
2019-03-01T06:48:24.904Z,20.43
2019-03-01T06:53:28.672Z,20.42
2019-03-01T06:58:40.927Z,20.41
2019-03-01T07:03:47.199Z,20.40
2019-03-01T07:08:50.976Z,20.34
2019-03-01T07:13:54.740Z,20.31
2019-03-01T07:18:58.521Z,20.31
2019-03-01T07:24:02.280Z,20.28
2019-03-01T07:29:06.447Z,20.28
2019-03-01T07:34:10.202Z,20.27
2019-03-01T07:39:13.964Z,20.26
2019-03-01T07:44:17.809Z,20.24
2019-03-01T07:49:21.555Z,20.25
2019-03-01T07:54:25.371Z,15.42
2019-03-01T07:59:33.459Z,15.29
2019-03-01T08:04:34.915Z,15.98
2019-03-01T08:09:41.283Z,15.98
2019-03-01T08:14:44.157Z,19.28
2019-03-01T08:19:47.929Z,19.97
2019-03-01T08:24:51.683Z,20.41
2019-03-01T08:29:55.442Z,20.45
2019-03-01T08:34:59.213Z,20.50
2019-03-01T08:40:03.144Z,20.47
2019-03-01T08:45:07.580Z,20.47
2019-03-01T08:50:13.410Z,20.48
2019-03-01T08:55:18.160Z,20.48
2019-03-01T09:00:26.977Z,20.48
2019-03-01T09:05:29.727Z,20.58
2019-03-01T09:10:33.667Z,20.54
2019-03-01T09:15:37.619Z,20.54
2019-03-01T09:20:41.365Z,20.46
2019-03-01T09:25:45.364Z,20.50
2019-03-01T09:30:49.150Z,20.50
2019-03-01T09:35:57.323Z,20.49
2019-03-01T09:41:04.097Z,20.44
2019-03-01T09:46:06.548Z,20.44
2019-03-01T09:51:11.404Z,20.41
2019-03-01T09:56:15.338Z,20.44
2019-03-01T10:01:19.947Z,20.37
2019-03-01T10:06:23.702Z,20.37
2019-03-01T10:11:27.464Z,20.37
2019-03-01T10:16:31.223Z,20.36
2019-03-01T10:21:34.966Z,20.36
2019-03-01T10:26:38.735Z,20.36
2019-03-01T10:31:42.490Z,20.39
2019-03-01T10:36:46.241Z,20.37
2019-03-01T10:41:49.980Z,20.39
2019-03-01T10:46:53.725Z,20.31
2019-03-01T10:51:57.493Z,20.32
2019-03-01T10:57:01.336Z,20.32
2019-03-01T11:02:05.164Z,20.28
2019-03-01T11:07:08.932Z,20.28
2019-03-01T11:12:12.685Z,20.26
2019-03-01T11:17:16.438Z,20.24
2019-03-01T11:22:20.243Z,20.25
2019-03-01T11:27:24.089Z,20.38
2019-03-01T11:32:27.867Z,20.38
2019-03-01T11:37:31.625Z,20.59
2019-03-01T11:42:35.380Z,20.69
2019-03-01T11:47:39.851Z,20.67
2019-03-01T11:52:43.640Z,20.78
2019-03-01T11:57:47.392Z,20.76
2019-03-01T12:02:51.516Z,20.71
2019-03-01T12:07:55.326Z,20.71
2019-03-01T12:12:59.106Z,20.71
2019-03-01T12:18:03.112Z,20.66
2019-03-01T12:23:06.854Z,20.62
2019-03-01T12:28:10.616Z,20.59
2019-03-01T12:33:14.400Z,20.59
2019-03-01T12:38:18.150Z,20.19
2019-03-01T12:43:21.909Z,20.08
2019-03-01T12:48:25.670Z,20.14
2019-03-01T12:53:29.430Z,20.07
2019-03-01T12:58:33.191Z,20.14
2019-03-01T13:03:36.931Z,20.11
2019-03-01T13:08:40.690Z,20.12
2019-03-01T13:13:44.473Z,20.11
2019-03-01T13:18:51.308Z,20.05
2019-03-01T13:23:55.739Z,19.98
2019-03-01T13:28:59.506Z,19.98
2019-03-01T13:34:03.341Z,20.00
2019-03-01T13:39:10.451Z,19.90
2019-03-01T13:44:13.506Z,20.03
2019-03-01T13:49:17.282Z,20.06
2019-03-01T13:54:21.495Z,20.10
2019-03-01T13:59:25.322Z,20.15
2019-03-01T14:04:29.171Z,20.18
2019-03-01T14:09:34.419Z,20.36
2019-03-01T14:14:38.322Z,20.42
2019-03-01T14:19:43.068Z,20.41
2019-03-01T14:24:46.921Z,20.46
2019-03-01T14:29:53.597Z,20.44
2019-03-01T14:34:56.210Z,20.44
2019-03-01T14:39:59.976Z,20.44
2019-03-01T14:45:06.615Z,20.47
2019-03-01T14:50:11.289Z,20.46
2019-03-01T14:55:19.711Z,20.56
2019-03-01T15:00:53.685Z,20.50
2019-03-01T15:05:57.710Z,20.53
2019-03-01T15:11:07.972Z,20.49
2019-03-01T15:16:12.994Z,20.51
2019-03-01T15:21:17.042Z,20.49
2019-03-01T15:26:23.108Z,20.49
2019-03-01T15:31:26.312Z,20.49
2019-03-01T15:36:30.169Z,20.55
2019-03-01T15:41:35.128Z,20.54
2019-03-01T15:46:38.905Z,20.54
2019-03-01T15:51:45.242Z,20.58
2019-03-01T15:56:49.042Z,20.52
2019-03-01T16:01:52.914Z,20.58
2019-03-01T16:06:56.814Z,20.61
2019-03-01T16:12:00.595Z,20.62
2019-03-01T16:17:04.568Z,20.62
2019-03-01T16:22:08.420Z,20.60
2019-03-01T16:27:15.167Z,20.59
2019-03-01T16:32:17.781Z,20.59
2019-03-01T16:37:22.686Z,20.58
2019-03-01T16:42:27.124Z,20.58
2019-03-01T16:47:30.917Z,20.66
2019-03-01T16:52:34.699Z,20.71
2019-03-01T16:57:38.541Z,20.62
2019-03-01T17:02:43.177Z,20.62
2019-03-01T17:07:47.010Z,20.69
2019-03-01T17:12:52.025Z,20.57
2019-03-01T17:17:56.311Z,20.68
2019-03-01T17:23:03.117Z,20.75
2019-03-01T17:28:05.752Z,21.41
2019-03-01T17:33:12.513Z,21.77
2019-03-01T17:38:15.150Z,21.77
2019-03-01T17:43:19.402Z,21.97
2019-03-01T17:48:23.179Z,22.13
2019-03-01T17:53:26.952Z,22.16
2019-03-01T17:58:30.769Z,22.16
2019-03-01T18:03:34.527Z,22.06
2019-03-01T18:08:39.699Z,22.12
2019-03-01T18:13:43.930Z,22.12
2019-03-01T18:18:49.413Z,22.17
2019-03-01T18:23:53.290Z,22.27
2019-03-01T18:28:57.037Z,22.28
2019-03-01T18:34:00.865Z,22.25
2019-03-01T18:39:10.221Z,22.20
2019-03-01T18:44:14.075Z,22.18
2019-03-01T18:49:19.751Z,22.19
2019-03-01T18:54:23.439Z,22.18
2019-03-01T18:59:27.180Z,22.18
2019-03-01T19:04:30.991Z,22.12
2019-03-01T19:09:36.261Z,22.14
2019-03-01T19:14:40.260Z,22.14
2019-03-01T19:19:44.294Z,22.23
2019-03-01T19:24:50.074Z,22.32
2019-03-01T19:29:53.586Z,22.31
2019-03-01T19:34:58.990Z,22.25
2019-03-01T19:40:03.006Z,22.24
2019-03-01T19:45:07.485Z,22.22
2019-03-01T19:50:13.284Z,22.19
2019-03-01T19:55:17.133Z,22.20
2019-03-01T20:00:22.231Z,22.20
2019-03-01T20:05:27.904Z,22.23
2019-03-01T20:10:32.143Z,22.16
2019-03-01T20:15:35.978Z,22.17
2019-03-01T20:20:39.936Z,22.17
2019-03-01T20:25:43.710Z,21.99
2019-03-01T20:30:47.479Z,21.83
2019-03-01T20:35:51.259Z,21.82
2019-03-01T20:40:55.019Z,21.78
2019-03-01T20:45:58.787Z,21.67
2019-03-01T20:51:02.590Z,21.60
2019-03-01T20:56:06.447Z,21.56
2019-03-01T21:01:10.275Z,21.48
2019-03-01T21:06:14.076Z,21.49
2019-03-01T21:11:17.870Z,21.42
2019-03-01T21:16:21.633Z,21.39
2019-03-01T21:21:25.580Z,21.30
2019-03-01T21:26:30.891Z,21.30
2019-03-01T21:31:35.406Z,21.30
2019-03-01T21:36:40.306Z,21.26
2019-03-01T21:41:44.753Z,21.26
2019-03-01T21:46:49.386Z,21.25
2019-03-01T21:51:55.214Z,21.25
2019-03-01T21:56:58.634Z,21.19
2019-03-01T22:02:02.426Z,21.19
2019-03-01T22:07:06.329Z,21.19
2019-03-01T22:12:10.105Z,21.08
2019-03-01T22:17:14.442Z,21.14
2019-03-01T22:22:18.332Z,21.14
2019-03-01T22:27:25.324Z,21.17
2019-03-01T22:32:29.051Z,21.17
2019-03-01T22:37:32.881Z,21.11
2019-03-01T22:42:36.651Z,21.09
2019-03-01T22:47:40.417Z,21.11
2019-03-01T22:52:44.305Z,21.07
2019-03-01T22:57:48.093Z,21.08
2019-03-01T23:02:51.851Z,21.08
2019-03-01T23:07:56.805Z,21.08
2019-03-01T23:13:01.179Z,21.08
2019-03-01T23:18:05.691Z,21.07
2019-03-01T23:23:10.370Z,21.04
2019-03-01T23:28:14.264Z,21.06
2019-03-01T23:33:18.009Z,21.06
2019-03-01T23:38:21.797Z,21.03
2019-03-01T23:43:27.543Z,21.01
2019-03-01T23:48:31.140Z,21.07
2019-03-01T23:53:34.941Z,21.02
2019-03-01T23:58:38.761Z,21.04
